Time;durP1;ratioP1;P1;durP2;ratioP2;P2;SDS_P1;SDS_P2;PMS_P1;PMS_P2;Temp;Humidity;BMP_temperature;BMP_pressure;BME280_temperature;BME280_humidity;BME280_pressure;Samples;Min_cycle;Max_cycle;Signal;HPM_P1;HPM_P2
2023/06/19 00:01:39;;;;;;;8.68;5.05;;;;;;;-144.47;50.71;52574.06;5008943;28;20045;-70
2023/06/19 00:04:05;;;;;;;10.63;5.90;;;;;;;-144.47;50.82;52589.97;5008626;28;20029;-73
2023/06/19 00:06:30;;;;;;;14.10;6.60;;;;;;;-144.47;50.96;52578.03;5008729;28;20018;-74
2023/06/19 00:08:56;;;;;;;12.65;5.45;;;;;;;-144.47;51.04;52605.84;5008666;28;20469;-72
2023/06/19 00:11:21;;;;;;;10.68;5.43;;;;;;;-144.47;51.17;52578.03;5009104;28;20025;-72
2023/06/19 00:13:46;;;;;;;12.43;5.68;;;;;;;-144.47;51.41;52570.09;5008587;28;20030;-71
2023/06/19 00:16:12;;;;;;;10.05;5.70;;;;;;;-144.47;51.49;52570.09;5008635;28;20046;-73
2023/06/19 00:18:39;;;;;;;15.88;8.20;;;;;;;-144.47;51.69;52601.88;5008685;28;20032;-73
2023/06/19 00:21:08;;;;;;;13.15;7.88;;;;;;;-144.47;51.69;52585.97;5008611;28;20025;-72
2023/06/19 00:23:34;;;;;;;;;;;;;;;-144.47;51.46;52591.94;5008693;28;20120;-73
2023/06/19 00:26:01;;;;;;;14.07;8.57;;;;;;;-144.47;51.48;52576.06;5008456;28;19913;-72
2023/06/19 00:28:30;;;;;;;13.57;7.68;;;;;;;-144.47;51.61;52593.94;5008575;28;20146;-69
2023/06/19 00:30:56;;;;;;;13.45;7.43;;;;;;;-144.47;51.73;52580.03;5008955;28;20030;-72
2023/06/19 00:33:21;;;;;;;10.93;7.07;;;;;;;-144.47;51.60;52546.25;5008702;28;20084;-71
2023/06/19 00:35:48;;;;;;;11.68;6.43;;;;;;;-144.47;51.77;52597.91;5007324;28;20373;-71
2023/06/19 00:38:13;;;;;;;13.98;6.70;;;;;;;-144.47;51.72;52584.00;5008174;28;20018;-72
2023/06/19 00:40:39;;;;;;;15.93;7.45;;;;;;;-144.47;51.59;52558.19;5008264;28;20060;-72
2023/06/19 00:43:05;;;;;;;11.52;6.05;;;;;;;-144.47;51.60;52582.00;5008514;28;20463;-75
2023/06/19 00:45:31;;;;;;;11.02;5.82;;;;;;;-144.47;51.52;52578.03;5007969;28;20105;-71
2023/06/19 00:47:58;;;;;;;9.63;5.25;;;;;;;-144.47;51.61;52538.31;5008462;28;20080;-70
2023/06/19 00:50:25;;;;;;;8.40;5.55;;;;;;;-144.47;51.45;52564.13;5006587;28;20022;-72
2023/06/19 00:52:51;;;;;;;8.88;5.30;;;;;;;-144.47;51.57;52617.75;5000836;28;20026;-69
2023/06/19 00:55:17;;;;;;;9.52;5.30;;;;;;;-144.47;51.53;52554.22;5001632;28;20041;-71
2023/06/19 00:57:43;;;;;;;9.95;5.13;;;;;;;-144.47;51.53;52585.97;5005590;28;20021;-73
2023/06/19 01:00:12;;;;;;;9.38;5.18;;;;;;;-144.47;51.81;52584.00;5007436;28;20044;-72
2023/06/19 01:02:37;;;;;;;;;;;;;;;-144.47;51.59;52562.16;5008581;28;20057;-68
2023/06/19 01:05:03;;;;;;;8.95;5.50;;;;;;;-144.47;51.74;52576.06;5006843;28;19941;-73
2023/06/19 01:07:40;;;;;;;11.07;5.55;;;;;;;-144.47;51.82;52580.03;5007262;28;20042;-69
2023/06/19 01:10:10;;;;;;;9.52;5.35;;;;;;;-144.47;51.92;52572.09;5007745;28;20029;-73
2023/06/19 01:12:40;;;;;;;8.85;5.32;;;;;;;-144.47;52.27;52562.16;5007741;28;20033;-73
2023/06/19 01:15:09;;;;;;;11.02;5.50;;;;;;;-144.47;52.27;52582.00;5007401;28;20479;-73
2023/06/19 01:17:35;;;;;;;9.75;5.57;;;;;;;-144.47;52.27;52562.16;5009865;28;20044;-72
2023/06/19 01:20:09;;;;;;;11.00;5.35;;;;;;;-144.47;52.00;52585.97;5010801;28;20046;-69
2023/06/19 01:22:34;;;;;;;8.73;5.70;;;;;;;-144.47;52.42;52582.00;5011653;28;20510;-69
2023/06/19 01:25:00;;;;;;;10.07;5.50;;;;;;;-144.47;52.48;52584.00;5010888;28;20038;-73
2023/06/19 01:27:29;;;;;;;12.45;4.95;;;;;;;-144.47;52.24;52558.19;5011734;28;20018;-72
2023/06/19 01:29:56;;;;;;;9.75;5.78;;;;;;;-144.47;51.69;52585.97;5011844;28;20124;-68
2023/06/19 01:32:30;;;;;;;7.45;5.22;;;;;;;-144.47;51.72;52574.06;5009451;28;20032;-69
2023/06/19 01:34:58;;;;;;;9.77;5.43;;;;;;;-144.47;51.60;52589.97;5011366;28;20030;-68
2023/06/19 01:37:27;;;;;;;9.57;5.27;;;;;;;-144.47;51.87;52585.97;5011570;28;20021;-70
2023/06/19 01:39:55;;;;;;;9.82;5.57;;;;;;;-144.47;51.72;52580.03;5011412;28;20028;-71
2023/06/19 01:42:21;;;;;;;;;;;;;;;-144.47;51.71;52570.09;5011833;28;20095;-73
2023/06/19 01:44:47;;;;;;;9.00;5.00;;;;;;;-144.47;51.84;52562.16;5010660;28;20397;-71
2023/06/19 01:47:15;;;;;;;15.40;6.43;;;;;;;-144.47;51.55;52562.16;5011514;28;20618;-71
2023/06/19 01:49:40;;;;;;;11.05;5.80;;;;;;;-144.47;51.81;52582.00;5010409;28;20030;-71
2023/06/19 01:52:06;;;;;;;9.52;5.68;;;;;;;-144.47;51.82;52572.09;5009336;28;20028;-73
2023/06/19 01:54:31;;;;;;;8.23;4.93;;;;;;;-144.47;51.78;52560.16;5010368;28;20555;-72
2023/06/19 01:56:58;;;;;;;9.43;5.50;;;;;;;-144.47;51.97;52576.06;5010255;28;20026;-71
2023/06/19 01:59:24;;;;;;;11.73;5.60;;;;;;;-144.47;52.08;52578.03;5010569;28;20128;-71
2023/06/19 02:01:49;;;;;;;10.70;5.25;;;;;;;-144.47;51.95;52585.97;5011190;28;20030;-73
2023/06/19 02:04:15;;;;;;;7.68;5.05;;;;;;;-144.47;52.07;52558.19;5010798;28;20144;-70
2023/06/19 02:06:40;;;;;;;9.70;5.60;;;;;;;-144.47;52.22;52574.06;5010785;28;20387;-72
2023/06/19 02:09:07;;;;;;;8.23;5.10;;;;;;;-144.47;52.32;52582.00;5010730;28;20022;-69
2023/06/19 02:11:33;;;;;;;13.13;6.28;;;;;;;-144.47;52.40;52582.00;5009286;28;20037;-70
2023/06/19 02:13:58;;;;;;;9.93;5.78;;;;;;;-144.47;52.64;52570.09;5010247;28;20030;-73
2023/06/19 02:16:23;;;;;;;11.60;5.53;;;;;;;-144.47;52.90;52578.03;5010306;28;20383;-69
2023/06/19 02:18:49;;;;;;;11.73;5.72;;;;;;;-144.47;52.96;52566.13;5010785;28;20399;-72
2023/06/19 02:21:15;;;;;;;12.48;5.60;;;;;;;-144.47;53.20;52562.16;5010352;28;20018;-71
2023/06/19 02:23:40;;;;;;;12.43;5.70;;;;;;;-144.47;53.24;52554.22;5009967;28;20022;-72
2023/06/19 02:26:05;;;;;;;10.90;5.63;;;;;;;-144.47;53.36;52576.06;5009439;28;20022;-69
2023/06/19 02:28:31;;;;;;;9.65;6.25;;;;;;;-144.47;53.61;52601.88;5010465;28;20105;-71
2023/06/19 02:30:56;;;;;;;15.75;6.43;;;;;;;-144.47;53.66;52568.13;5009993;28;20022;-72
2023/06/19 02:33:21;;;;;;;11.50;6.03;;;;;;;-144.47;53.78;52574.06;5010320;28;20071;-73
2023/06/19 02:35:47;;;;;;;11.48;5.82;;;;;;;-144.47;53.86;52570.09;5010141;28;20503;-71
2023/06/19 02:38:14;;;;;;;14.07;6.38;;;;;;;-144.47;53.97;52570.09;4997654;28;20025;-69
2023/06/19 02:40:39;;;;;;;16.88;6.50;;;;;;;-144.47;53.95;52542.28;5010422;28;20026;-74
2023/06/19 02:43:05;;;;;;;10.45;5.70;;;;;;;-144.47;54.13;52582.00;5011238;28;20033;-69
2023/06/19 02:45:30;;;;;;;11.00;5.75;;;;;;;-144.47;54.14;52582.00;5019644;28;20022;-72
2023/06/19 02:47:56;;;;;;;9.68;5.93;;;;;;;-144.47;54.21;52574.06;5015206;28;20053;-71
2023/06/19 02:50:21;;;;;;;9.63;5.45;;;;;;;-144.47;54.47;52613.78;5012320;28;20188;-71
2023/06/19 02:52:47;;;;;;;9.80;5.85;;;;;;;-144.47;54.38;52572.09;5005243;28;20094;-73
2023/06/19 02:55:12;;;;;;;17.10;5.80;;;;;;;-144.47;54.31;52564.13;5009505;28;20025;-69
2023/06/19 02:57:38;;;;;;;11.27;6.28;;;;;;;-144.47;54.32;52546.25;5010677;28;20142;-70
2023/06/19 03:00:05;;;;;;;11.63;6.55;;;;;;;-144.47;54.46;52572.09;5009886;28;20037;-70
2023/06/19 03:02:31;;;;;;;17.08;6.50;;;;;;;-144.47;54.48;52576.06;5009783;28;20037;-71
2023/06/19 03:04:56;;;;;;;13.57;6.15;;;;;;;-144.47;54.60;52562.16;5007706;28;20029;-72
2023/06/19 03:07:22;;;;;;;15.88;7.28;;;;;;;-144.47;54.78;52591.94;5009619;28;20018;-69
2023/06/19 03:09:47;;;;;;;11.73;6.25;;;;;;;-144.47;54.90;52574.06;5009619;28;20079;-71
2023/06/19 03:12:13;;;;;;;9.30;5.47;;;;;;;-144.47;54.97;52548.25;5009285;28;20079;-72
2023/06/19 03:14:39;;;;;;;9.77;6.00;;;;;;;-144.47;54.86;52584.00;5008713;28;20172;-71
2023/06/19 03:17:05;;;;;;;10.10;5.70;;;;;;;-144.47;54.65;52570.09;5009353;28;20026;-70
2023/06/19 03:19:30;;;;;;;11.65;5.88;;;;;;;-144.47;54.65;52568.13;5009308;28;20040;-70
2023/06/19 03:21:56;;;;;;;15.43;6.88;;;;;;;-144.47;54.75;52560.16;5007924;28;20535;-71
2023/06/19 03:24:21;;;;;;;11.68;5.80;;;;;;;-144.47;54.38;52570.09;5009131;28;20058;-73
2023/06/19 03:26:46;;;;;;;15.07;5.60;;;;;;;-144.47;54.37;52570.09;5009252;28;20024;-72
2023/06/19 03:29:12;;;;;;;14.85;6.18;;;;;;;-144.47;54.33;52597.91;5007365;28;20017;-71
2023/06/19 03:31:39;;;;;;;15.90;6.00;;;;;;;-144.47;54.45;52556.19;5009105;28;20033;-73
2023/06/19 03:34:05;;;;;;;9.32;5.57;;;;;;;-144.47;54.28;52593.94;5009264;28;20049;-69
2023/06/19 03:36:30;;;;;;;11.15;5.97;;;;;;;-144.47;54.23;52570.09;5009132;28;20488;-69
2023/06/19 03:38:56;;;;;;;12.02;5.93;;;;;;;-144.47;54.23;52574.06;5008996;28;20340;-72
2023/06/19 03:41:21;;;;;;;11.43;6.07;;;;;;;-144.47;54.14;52544.28;5009297;28;20499;-69
2023/06/19 03:43:46;;;;;;;10.65;5.97;;;;;;;-144.47;54.14;52582.00;5008968;28;20060;-72
2023/06/19 03:46:12;;;;;;;9.48;5.85;;;;;;;-144.47;54.41;52601.88;5008800;28;20018;-72
2023/06/19 03:48:37;;;;;;;8.90;5.63;;;;;;;-144.47;54.48;52584.00;5008706;28;20139;-74
2023/06/19 03:51:03;;;;;;;15.30;6.60;;;;;;;-144.47;54.68;52580.03;5007369;28;20025;-72
2023/06/19 03:53:28;;;;;;;9.13;5.80;;;;;;;-144.47;54.70;52572.09;5009714;28;20029;-74
2023/06/19 03:55:54;;;;;;;9.98;5.57;;;;;;;-144.47;54.72;52572.09;5008768;28;20033;-71
2023/06/19 03:58:19;;;;;;;12.45;6.28;;;;;;;-144.47;54.83;52564.13;5008950;28;20026;-70
2023/06/19 04:00:45;;;;;;;10.90;6.40;;;;;;;-144.47;54.85;52552.22;5008576;28;20030;-71
2023/06/19 04:03:10;;;;;;;12.27;6.20;;;;;;;-144.47;55.18;52562.16;5007590;28;20105;-68
2023/06/19 04:05:36;;;;;;;11.20;5.88;;;;;;;-144.47;55.40;52568.13;5008862;28;20029;-71
2023/06/19 04:08:01;;;;;;;9.55;5.85;;;;;;;-144.47;55.52;52572.09;5008895;28;20492;-71
2023/06/19 04:10:26;;;;;;;13.02;6.30;;;;;;;-144.47;55.59;52566.13;5009202;28;20506;-72
2023/06/19 04:12:54;;;;;;;9.98;5.78;;;;;;;-144.47;55.61;52566.13;5008531;28;20050;-69
2023/06/19 04:15:20;;;;;;;16.35;6.90;;;;;;;-144.47;55.61;52570.09;5009463;28;20035;-72
2023/06/19 04:17:45;;;;;;;12.13;6.85;;;;;;;-144.47;55.67;52580.03;4997530;28;20021;-72
2023/06/19 04:20:11;;;;;;;11.23;6.47;;;;;;;-144.47;55.84;52584.00;5008961;28;20078;-73
2023/06/19 04:22:39;;;;;;;10.75;6.18;;;;;;;-144.47;55.77;52562.16;5007945;28;20161;-74
2023/06/19 04:25:08;;;;;;;;;;;;;;;-144.47;56.06;52570.09;5006459;28;20064;-73
2023/06/19 04:27:34;;;;;;;10.40;6.38;;;;;;;-144.47;56.34;52568.13;5005771;28;19917;-70
2023/06/19 04:29:59;;;;;;;13.57;6.60;;;;;;;-144.47;56.76;52582.00;5003806;28;20026;-74
2023/06/19 04:32:24;;;;;;;13.32;6.68;;;;;;;-144.47;56.93;52585.97;5002141;28;20450;-72
2023/06/19 04:34:50;;;;;;;10.90;6.60;;;;;;;-144.47;57.31;52589.97;5007882;28;20037;-70
2023/06/19 04:37:18;;;;;;;12.63;6.45;;;;;;;-144.47;57.06;52572.09;5008055;28;20037;-72
2023/06/19 04:39:45;;;;;;;14.55;6.03;;;;;;;-144.47;57.44;52585.97;5008309;28;20069;-71
2023/06/19 04:42:10;;;;;;;10.90;5.95;;;;;;;-144.47;57.22;52576.06;5008335;28;20041;-68
2023/06/19 04:44:36;;;;;;;12.00;6.50;;;;;;;-144.47;57.58;52574.06;5004135;28;20065;-71
2023/06/19 04:47:01;;;;;;;10.73;7.10;;;;;;;-144.47;56.91;52580.03;4995932;28;20084;-71
2023/06/19 04:49:30;;;;;;;13.88;7.45;;;;;;;-144.47;56.42;52572.09;5002344;28;20072;-73
2023/06/19 04:51:59;;;;;;;11.75;6.75;;;;;;;-144.47;56.35;52570.09;5005640;28;20033;-72
2023/06/19 04:54:25;;;;;;;10.80;6.80;;;;;;;-144.47;55.87;52589.97;5006152;23;20148;-64
2023/06/19 04:56:51;;;;;;;17.10;7.20;;;;;;;-144.47;55.06;52599.88;5009019;28;20184;-64
2023/06/19 04:59:18;;;;;;;13.25;6.47;;;;;;;-144.47;54.59;52623.72;5013167;28;20014;-66
2023/06/19 05:01:43;;;;;;;12.75;7.20;;;;;;;-144.47;54.71;52601.88;5014062;28;20539;-65
2023/06/19 05:04:10;;;;;;;10.20;6.47;;;;;;;-144.47;54.75;52589.97;5013254;28;20194;-65
2023/06/19 05:06:36;;;;;;;15.20;8.15;;;;;;;-144.47;54.48;52562.16;5013080;28;20099;-65
2023/06/19 05:09:02;;;;;;;11.63;7.15;;;;;;;-144.47;54.58;52621.72;5013263;28;20026;-65
2023/06/19 05:11:27;;;;;;;14.30;7.65;;;;;;;-144.47;55.04;52556.19;5013385;28;20053;-66
2023/06/19 05:13:52;;;;;;;14.27;6.35;;;;;;;-144.47;55.30;52572.09;5012425;28;20049;-65
2023/06/19 05:16:19;;;;;;;12.57;6.50;;;;;;;-144.47;55.39;52566.13;5011377;28;20458;-66
2023/06/19 05:18:45;;;;;;;12.23;6.43;;;;;;;-144.47;55.50;52556.19;5011037;28;20502;-65
2023/06/19 05:21:10;;;;;;;10.02;6.40;;;;;;;-144.47;55.37;52578.03;5012259;28;20025;-66
2023/06/19 05:23:38;;;;;;;10.73;6.35;;;;;;;-144.47;55.59;52580.03;5011372;28;20041;-66
2023/06/19 05:26:03;;;;;;;14.55;6.15;;;;;;;-144.47;55.86;52578.03;5008174;28;20041;-64
2023/06/19 05:28:29;;;;;;;12.40;6.63;;;;;;;-144.47;56.01;52562.16;5004536;28;20035;-65
2023/06/19 05:30:54;;;;;;;11.55;6.57;;;;;;;-144.47;55.92;52585.97;5012707;28;20026;-65
2023/06/19 05:33:20;;;;;;;11.68;7.10;;;;;;;-144.47;56.22;52609.81;5010917;28;20101;-65
2023/06/19 05:35:52;;;;;;;14.07;6.53;;;;;;;-144.47;56.05;52585.97;5012267;28;20479;-65
2023/06/19 05:38:17;;;;;;;11.23;6.20;;;;;;;-144.47;56.14;52584.00;5012746;28;20098;-66
2023/06/19 05:40:45;;;;;;;16.10;7.13;;;;;;;-144.47;56.24;52580.03;5012050;28;20041;-60
2023/06/19 05:43:10;;;;;;;16.73;6.82;;;;;;;-144.47;55.87;52607.84;5013027;28;20026;-62
2023/06/19 05:45:36;;;;;;;13.00;6.57;;;;;;;-144.47;56.13;52570.09;5011737;28;20040;-65
2023/06/19 05:48:01;;;;;;;11.90;6.53;;;;;;;-144.47;57.67;52582.00;5012693;28;20030;-64
2023/06/19 05:50:26;;;;;;;12.82;7.68;;;;;;;-144.47;58.26;52580.03;5010642;28;20026;-65
2023/06/19 05:52:52;;;;;;;9.80;6.30;;;;;;;-144.47;58.01;52568.13;5012036;28;20506;-64
2023/06/19 05:55:17;;;;;;;17.55;7.30;;;;;;;-144.47;58.35;52591.94;5012077;28;20037;-65
2023/06/19 05:57:43;;;;;;;13.13;7.55;;;;;;;-144.47;59.84;52597.91;5012598;28;20026;-66
2023/06/19 06:00:13;;;;;;;13.75;7.80;;;;;;;-144.47;60.02;52609.81;5013648;28;20029;-65
2023/06/19 06:02:39;;;;;;;11.38;7.18;;;;;;;-144.47;60.10;52582.00;5011788;28;20026;-65
2023/06/19 06:05:05;;;;;;;9.93;6.60;;;;;;;-144.47;61.48;52593.94;5012261;28;20036;-65
2023/06/19 06:07:30;;;;;;;13.63;6.88;;;;;;;-144.47;61.74;52589.97;5012341;28;20026;-66
2023/06/19 06:09:56;;;;;;;15.57;8.85;;;;;;;-144.47;64.43;52601.88;5012744;28;20034;-65
2023/06/19 06:12:21;;;;;;;14.77;7.28;;;;;;;-144.47;63.43;52554.22;5012979;28;20171;-64
2023/06/19 06:14:46;;;;;;;13.30;7.85;;;;;;;-144.47;63.06;52617.75;5010980;28;20084;-63
2023/06/19 06:17:12;;;;;;;14.05;7.00;;;;;;;-144.47;63.75;52570.09;5013039;28;20028;-61
2023/06/19 06:19:38;;;;;;;14.45;7.18;;;;;;;-144.47;63.83;52570.09;5009327;28;20499;-63
2023/06/19 06:22:04;;;;;;;11.90;6.85;;;;;;;-144.47;64.72;52591.94;5012047;28;20416;-63
2023/06/19 06:24:29;;;;;;;11.73;7.18;;;;;;;-144.47;65.99;52599.88;4998553;28;20504;-62
2023/06/19 06:26:55;;;;;;;21.45;7.70;;;;;;;-144.47;67.06;52589.97;5012042;28;20037;-65
2023/06/19 06:29:20;;;;;;;13.00;7.97;;;;;;;-144.47;67.13;52570.09;5011321;28;20053;-65
2023/06/19 06:31:47;;;;;;;25.83;9.60;;;;;;;-144.47;68.35;52589.97;5008568;28;20104;-65
2023/06/19 06:34:12;;;;;;;17.88;6.95;;;;;;;-144.47;69.07;52578.03;5011343;28;20022;-65
2023/06/19 06:36:38;;;;;;;29.63;8.02;;;;;;;-144.47;68.60;52597.91;5010946;28;20030;-65
2023/06/19 06:39:04;;;;;;;17.48;7.05;;;;;;;-144.47;68.15;52593.94;5012938;28;20148;-64
2023/06/19 06:41:29;;;;;;;16.63;8.30;;;;;;;-144.47;68.51;52591.94;5012401;28;20033;-57
2023/06/19 06:43:55;;;;;;;18.55;8.27;;;;;;;-144.47;68.00;52605.84;5011490;28;20028;-63
2023/06/19 06:46:21;;;;;;;18.52;7.75;;;;;;;-144.47;67.09;52593.94;5011169;28;20395;-67
2023/06/19 06:48:46;;;;;;;36.53;8.30;;;;;;;-144.47;67.79;52591.94;5008494;28;20036;-63
2023/06/19 06:51:11;;;;;;;24.90;8.57;;;;;;;-144.47;67.06;52585.97;5009123;28;20072;-66
2023/06/19 06:53:37;;;;;;;16.08;7.85;;;;;;;-144.47;66.88;52584.00;5005595;28;20025;-66
2023/06/19 06:56:03;;;;;;;23.77;7.85;;;;;;;-144.47;66.38;52591.94;5000948;28;20034;-67
2023/06/19 06:58:28;;;;;;;16.50;7.50;;;;;;;-144.47;66.26;52587.97;5002806;28;20040;-63
2023/06/19 07:00:55;;;;;;;21.77;7.65;;;;;;;-144.47;66.42;52607.84;5010134;28;20030;-65
2023/06/19 07:03:21;;;;;;;17.17;7.30;;;;;;;-144.47;66.08;52578.03;5003420;28;20520;-63
2023/06/19 07:05:47;;;;;;;13.77;7.30;;;;;;;-144.47;66.23;52591.94;5005258;28;20141;-64
2023/06/19 07:08:13;;;;;;;17.15;7.63;;;;;;;-144.47;65.42;52593.94;5002484;28;20049;-66
2023/06/19 07:10:38;;;;;;;19.10;7.80;;;;;;;-144.47;64.03;52605.84;5011194;28;20042;-61
2023/06/19 07:13:04;;;;;;;15.77;7.60;;;;;;;-144.47;62.79;52615.78;5010636;28;20053;-63
2023/06/19 07:15:29;;;;;;;20.08;7.88;;;;;;;-144.47;61.92;52599.88;5009615;28;20022;-64
2023/06/19 07:17:56;;;;;;;17.85;6.82;;;;;;;-144.47;60.89;52607.84;5011480;28;20022;-64
2023/06/19 07:20:21;;;;;;;15.38;7.20;;;;;;;-144.47;60.25;52607.84;5011173;28;20026;-64
2023/06/19 07:22:47;;;;;;;16.63;7.28;;;;;;;-144.47;60.55;52580.03;5011765;28;20026;-64
2023/06/19 07:25:13;;;;;;;15.10;7.32;;;;;;;-144.47;60.15;52591.94;5011001;28;20152;-65
2023/06/19 07:27:40;;;;;;;16.45;7.35;;;;;;;-144.47;58.42;52578.03;5010852;28;20061;-63
2023/06/19 07:30:07;;;;;;;15.70;6.80;;;;;;;-144.47;58.09;52591.94;5011322;28;20053;-64
2023/06/19 07:32:32;;;;;;;15.95;7.32;;;;;;;-144.47;57.01;52629.69;5010131;28;20052;-65
2023/06/19 07:34:58;;;;;;;13.70;6.65;;;;;;;-144.47;56.47;52599.88;5010623;28;20492;-61
2023/06/19 07:37:23;;;;;;;13.63;6.93;;;;;;;-144.47;55.92;52611.81;5011072;28;20025;-65
2023/06/19 07:39:50;;;;;;;12.60;7.40;;;;;;;-144.47;55.82;52607.84;5010829;28;20024;-66
2023/06/19 07:42:17;;;;;;;12.15;6.95;;;;;;;-144.47;55.30;52589.97;5011706;28;20033;-63
2023/06/19 07:44:43;;;;;;;16.25;7.28;;;;;;;-144.47;54.60;52633.66;5010448;28;20430;-65
2023/06/19 07:47:09;;;;;;;17.13;6.75;;;;;;;-144.47;54.45;52615.78;5010332;28;20022;-62
2023/06/19 07:49:36;;;;;;;10.95;6.75;;;;;;;-144.47;54.43;52621.72;5008987;28;20026;-63
2023/06/19 07:52:04;;;;;;;27.13;7.90;;;;;;;-144.47;54.08;52605.84;5010445;28;20562;-65
2023/06/19 07:54:30;;;;;;;16.48;7.22;;;;;;;-144.47;53.56;52613.78;5008895;28;20057;-64
2023/06/19 07:56:56;;;;;;;13.20;7.22;;;;;;;-144.47;53.31;52625.72;5011256;28;20053;-65
2023/06/19 07:59:22;;;;;;;24.85;6.63;;;;;;;-144.47;53.14;52615.78;5012484;28;20052;-65
2023/06/19 08:01:48;;;;;;;18.05;7.60;;;;;;;-144.47;52.91;52601.88;5013037;28;20018;-64
2023/06/19 08:04:13;;;;;;;14.90;7.10;;;;;;;-144.47;52.51;52605.84;5010461;28;20084;-64
2023/06/19 08:06:38;;;;;;;13.10;7.00;;;;;;;-144.47;51.85;52617.75;5010666;28;20072;-62
2023/06/19 08:09:04;;;;;;;15.15;6.78;;;;;;;-144.47;51.80;52609.81;5011473;28;20072;-65
2023/06/19 08:11:29;;;;;;;15.88;6.95;;;;;;;-144.47;51.32;52607.84;5011687;28;20515;-64
2023/06/19 08:13:55;;;;;;;13.00;6.90;;;;;;;-144.47;50.76;52609.81;5008706;28;20029;-66
2023/06/19 08:16:20;;;;;;;15.93;7.00;;;;;;;-144.47;50.33;52631.66;5010053;28;20029;-64
2023/06/19 08:18:45;;;;;;;11.98;6.53;;;;;;;-144.47;49.93;52605.84;5010503;28;20030;-65
2023/06/19 08:21:12;;;;;;;20.60;8.05;;;;;;;-144.47;49.45;52637.63;5008489;28;20030;-65
2023/06/19 08:23:39;;;;;;;22.23;7.75;;;;;;;-144.47;49.07;52633.66;5009357;28;20479;-62
2023/06/19 08:26:04;;;;;;;17.52;8.07;;;;;;;-144.47;48.56;52631.66;5008235;28;20559;-64
2023/06/19 08:28:32;;;;;;;16.38;7.57;;;;;;;-144.47;47.88;52649.53;5010472;28;20041;-62
2023/06/19 08:30:57;;;;;;;17.35;7.28;;;;;;;-144.47;47.25;52627.69;5009508;28;20128;-63
2023/06/19 08:33:24;;;;;;;19.95;7.28;;;;;;;-144.47;46.58;52629.69;5008608;28;20141;-64
2023/06/19 08:35:49;;;;;;;14.13;6.90;;;;;;;-144.47;46.26;52649.53;5009117;28;20021;-62
2023/06/19 08:38:14;;;;;;;12.20;7.18;;;;;;;-144.47;45.16;52643.56;5009987;28;20222;-64
2023/06/19 08:40:43;;;;;;;14.02;6.80;;;;;;;-144.47;44.95;52639.59;5009462;28;20052;-63
2023/06/19 08:43:09;;;;;;;14.43;6.78;;;;;;;-144.47;44.40;52671.38;5009687;28;20029;-64
2023/06/19 08:45:34;;;;;;;13.38;6.53;;;;;;;-144.47;43.81;52661.44;5008921;28;20510;-65
2023/06/19 08:48:03;;;;;;;13.60;7.63;;;;;;;-144.47;42.59;52661.44;5009647;28;20034;-62
2023/06/19 08:50:30;;;;;;;14.18;6.60;;;;;;;-144.47;42.59;52681.31;5008436;28;20030;-65
2023/06/19 08:52:56;;;;;;;11.60;6.35;;;;;;;-144.47;42.42;52675.34;5005272;28;20113;-64
2023/06/19 08:55:21;;;;;;;13.68;6.53;;;;;;;-144.47;41.52;52697.19;5009020;28;20113;-65
2023/06/19 08:57:49;;;;;;;11.38;6.05;;;;;;;-144.47;39.62;52689.25;5009511;28;20034;-64
2023/06/19 09:00:23;;;;;;;15.73;6.68;;;;;;;-144.47;39.12;52701.19;5009017;28;20112;-65
2023/06/19 09:02:49;;;;;;;11.82;6.60;;;;;;;-144.47;39.08;52699.19;5009973;28;20364;-62
2023/06/19 09:05:16;;;;;;;9.90;6.15;;;;;;;-144.47;39.62;52709.13;5008838;28;20610;-65
2023/06/19 09:07:43;;;;;;;15.03;6.10;;;;;;;-144.47;38.98;52705.16;5009708;28;20033;-62
2023/06/19 09:10:18;;;;;;;11.32;6.20;;;;;;;-144.47;37.70;52754.81;5009426;28;20036;-64
2023/06/19 09:12:56;;;;;;;9.60;5.70;;;;;;;-144.47;36.96;52715.06;5009370;28;20109;-65
2023/06/19 09:15:23;;;;;;;16.30;6.00;;;;;;;-144.47;36.94;52705.16;5008839;28;20073;-61
2023/06/19 09:18:02;;;;;;;10.95;5.65;;;;;;;-144.47;36.85;52709.13;5009441;28;20026;-65
2023/06/19 09:20:28;;;;;;;17.70;6.05;;;;;;;-144.47;37.01;52683.31;5009169;28;20101;-64
2023/06/19 09:22:55;;;;;;;11.52;6.13;;;;;;;-144.47;37.33;52711.09;5009475;28;20026;-62
2023/06/19 09:25:21;;;;;;;20.42;6.50;;;;;;;-144.47;37.33;52715.06;5009020;28;20041;-63
2023/06/19 09:27:47;;;;;;;10.75;6.22;;;;;;;-144.47;36.50;52693.22;5009612;28;20273;-62
2023/06/19 09:30:15;;;;;;;14.98;5.95;;;;;;;-144.47;36.07;52697.19;5009436;28;20022;-65
2023/06/19 09:32:40;;;;;;;12.65;6.20;;;;;;;-144.47;36.75;52699.19;5009697;28;20164;-65
2023/06/19 09:35:06;;;;;;;15.27;6.10;;;;;;;-144.47;36.58;52703.16;5010086;28;20526;-59
2023/06/19 09:37:31;;;;;;;12.02;6.78;;;;;;;-144.47;36.60;52703.16;5013576;28;20030;-65
2023/06/19 09:39:58;;;;;;;15.65;6.63;;;;;;;-144.47;36.58;52705.16;5012637;28;20025;-63
2023/06/19 09:42:30;;;;;;;11.15;6.05;;;;;;;-144.47;36.36;52713.09;5012888;28;20033;-63
2023/06/19 09:45:08;;;;;;;20.65;8.18;;;;;;;-144.47;36.88;52699.19;5012582;28;20066;-65
2023/06/19 09:47:39;;;;;;;18.20;6.32;;;;;;;-144.47;36.66;52705.16;5012813;28;20438;-65
2023/06/19 09:50:06;;;;;;;18.90;6.40;;;;;;;-144.47;36.45;52730.97;5012247;28;20080;-64
2023/06/19 09:52:31;;;;;;;10.77;6.43;;;;;;;-144.47;35.97;52725.00;5008341;28;20373;-65
2023/06/19 09:55:00;;;;;;;9.40;5.88;;;;;;;-144.47;35.70;52752.81;5012332;28;20124;-65
2023/06/19 09:57:26;;;;;;;15.38;6.03;;;;;;;-144.47;35.66;52756.78;5012087;28;20363;-65
2023/06/19 09:59:59;;;;;;;12.02;6.45;;;;;;;-144.47;35.56;52717.06;5012213;28;20018;-66
2023/06/19 10:02:27;;;;;;;13.85;6.25;;;;;;;-144.47;35.68;52727.00;5012021;28;20064;-63
2023/06/19 10:04:55;;;;;;;9.90;6.03;;;;;;;-144.47;35.65;52752.81;5011440;28;20101;-65
2023/06/19 10:07:23;;;;;;;12.82;6.13;;;;;;;-144.47;34.92;52752.81;5012013;28;20029;-65
2023/06/19 10:10:06;;;;;;;;;;;;;;;-144.47;34.69;52742.88;5012507;28;20480;-62
2023/06/19 10:12:40;;;;;;;11.05;6.82;;;;;;;-144.47;34.99;52760.75;5012200;28;19936;-64
2023/06/19 10:15:18;;;;;;;11.73;6.47;;;;;;;-144.47;34.69;52784.59;5011477;28;20521;-65
2023/06/19 10:17:51;;;;;;;17.60;6.35;;;;;;;-144.47;34.38;52760.75;5012577;28;20034;-64
2023/06/19 10:20:33;;;;;;;11.85;6.43;;;;;;;-144.47;34.05;52766.72;5012119;28;20081;-61
2023/06/19 10:23:08;;;;;;;13.60;6.90;;;;;;;-144.47;34.16;52736.94;5011439;28;20045;-66
2023/06/19 10:25:36;;;;;;;14.57;6.65;;;;;;;-144.47;34.39;52778.63;5010067;28;20040;-65
2023/06/19 10:28:05;;;;;;;;;;;;;;;-144.47;34.46;52752.81;5012730;28;20095;-64
2023/06/19 10:30:33;;;;;;;14.70;6.63;;;;;;;-144.47;33.94;52784.59;5011624;28;20474;-59
2023/06/19 10:32:59;;;;;;;11.77;6.45;;;;;;;-144.47;33.92;52772.69;5011907;28;20026;-64
2023/06/19 10:35:24;;;;;;;11.35;5.97;;;;;;;-144.47;33.82;52800.47;5011568;28;20030;-65
2023/06/19 10:37:50;;;;;;;10.43;6.40;;;;;;;-144.47;33.54;52806.44;5012008;28;20030;-64
2023/06/19 10:40:16;;;;;;;10.57;6.10;;;;;;;-144.47;33.56;52806.44;5012710;28;20493;-65
2023/06/19 10:42:41;;;;;;;15.82;6.93;;;;;;;-144.47;32.99;52798.50;5011836;28;20022;-65
2023/06/19 10:45:10;;;;;;;10.98;6.57;;;;;;;-144.47;32.93;52804.44;5010918;28;20061;-67
2023/06/19 10:47:37;;;;;;;16.95;6.93;;;;;;;-144.47;33.23;52792.53;5010449;28;20029;-64
2023/06/19 10:50:02;;;;;;;10.40;5.95;;;;;;;-144.47;32.97;52788.56;5010127;28;20488;-64
2023/06/19 10:52:29;;;;;;;18.13;8.27;;;;;;;-144.47;32.12;52830.28;5011283;28;20030;-65
2023/06/19 10:57:34;;;;;;;10.77;6.55;;;;;;;-144.47;32.05;52824.31;5008574;28;20062;-71
2023/06/19 10:59:59;;;;;;;12.77;6.57;;;;;;;-144.47;31.77;52802.47;5010209;28;20029;-69
2023/06/19 11:02:25;;;;;;;21.90;6.50;;;;;;;-144.47;31.92;52846.16;5019070;28;20022;-70
2023/06/19 11:04:55;;;;;;;9.02;5.80;;;;;;;-144.47;31.72;52820.34;5022387;28;20030;-71
2023/06/19 11:07:22;;;;;;;13.80;6.40;;;;;;;-144.47;31.38;52824.31;5016634;28;20025;-69
2023/06/19 11:09:47;;;;;;;12.95;7.05;;;;;;;-144.47;31.30;52820.34;5009632;28;20053;-71
2023/06/19 11:12:19;;;;;;;14.02;6.55;;;;;;;-144.47;31.26;52850.13;5010629;28;20025;-69